sensor_id;sensor_type;location;lat;lon;timestamp;pressure;altitude;pressure_sealevel;temperature;humidity
71361;BME280;59166;48.908;1.870;2023-04-28T00:03:17;99971.03;;;15.14;100.00
71361;BME280;59166;48.908;1.870;2023-04-28T00:08:18;99969.41;;;15.13;100.00
71361;BME280;59166;48.908;1.870;2023-04-28T00:13:19;99974.50;;;15.20;100.00
71361;BME280;59166;48.908;1.870;2023-04-28T00:18:22;99971.63;;;15.11;100.00
71361;BME280;59166;48.908;1.870;2023-04-28T00:23:22;99970.00;;;15.10;100.00
71361;BME280;59166;48.908;1.870;2023-04-28T00:28:23;99967.28;;;15.10;100.00
71361;BME280;59166;48.908;1.870;2023-04-28T00:33:25;99964.91;;;15.09;100.00
71361;BME280;59166;48.908;1.870;2023-04-28T00:38:26;99957.00;;;15.07;100.00
71361;BME280;59166;48.908;1.870;2023-04-28T00:43:28;99955.31;;;15.11;100.00
71361;BME280;59166;48.908;1.870;2023-04-28T00:48:30;99970.53;;;15.12;100.00
71361;BME280;59166;48.908;1.870;2023-04-28T00:53:32;99963.47;;;15.11;100.00
71361;BME280;59166;48.908;1.870;2023-04-28T00:58:33;99964.56;;;15.10;100.00
71361;BME280;59166;48.908;1.870;2023-04-28T01:03:37;99967.00;;;15.12;100.00
71361;BME280;59166;48.908;1.870;2023-04-28T01:08:38;99960.16;;;15.14;100.00
71361;BME280;59166;48.908;1.870;2023-04-28T01:13:39;99973.34;;;15.07;100.00
71361;BME280;59166;48.908;1.870;2023-04-28T01:18:48;99968.72;;;15.08;100.00
71361;BME280;59166;48.908;1.870;2023-04-28T01:23:50;99967.41;;;15.05;100.00
71361;BME280;59166;48.908;1.870;2023-04-28T01:28:51;99971.44;;;15.08;100.00
71361;BME280;59166;48.908;1.870;2023-04-28T01:33:52;99955.31;;;15.11;100.00
71361;BME280;59166;48.908;1.870;2023-04-28T01:38:54;99967.69;;;15.04;100.00
71361;BME280;59166;48.908;1.870;2023-04-28T01:43:55;99960.44;;;14.99;100.00
71361;BME280;59166;48.908;1.870;2023-04-28T01:48:56;99962.78;;;15.06;100.00
71361;BME280;59166;48.908;1.870;2023-04-28T01:53:58;99958.72;;;15.03;100.00
71361;BME280;59166;48.908;1.870;2023-04-28T01:58:59;99969.31;;;15.05;100.00
71361;BME280;59166;48.908;1.870;2023-04-28T02:04:00;99972.31;;;15.03;100.00
71361;BME280;59166;48.908;1.870;2023-04-28T02:09:02;99973.22;;;14.99;100.00
71361;BME280;59166;48.908;1.870;2023-04-28T02:14:03;99968.00;;;15.02;100.00
71361;BME280;59166;48.908;1.870;2023-04-28T02:19:04;99977.47;;;15.05;100.00
71361;BME280;59166;48.908;1.870;2023-04-28T02:24:07;99963.38;;;15.03;100.00
71361;BME280;59166;48.908;1.870;2023-04-28T02:29:08;99968.91;;;15.11;100.00
71361;BME280;59166;48.908;1.870;2023-04-28T02:34:09;99962.78;;;15.06;100.00
71361;BME280;59166;48.908;1.870;2023-04-28T02:39:11;99976.66;;;15.04;100.00
71361;BME280;59166;48.908;1.870;2023-04-28T02:44:13;99973.13;;;15.04;100.00
71361;BME280;59166;48.908;1.870;2023-04-28T02:49:14;99975.84;;;15.04;100.00
71361;BME280;59166;48.908;1.870;2023-04-28T02:54:17;99965.28;;;15.02;100.00
71361;BME280;59166;48.908;1.870;2023-04-28T02:59:17;99973.50;;;14.97;100.00
71361;BME280;59166;48.908;1.870;2023-04-28T03:04:18;99974.63;;;14.96;100.00
71361;BME280;59166;48.908;1.870;2023-04-28T03:09:21;99971.59;;;14.98;100.00
71361;BME280;59166;48.908;1.870;2023-04-28T03:14:21;99964.59;;;14.91;100.00
71361;BME280;59166;48.908;1.870;2023-04-28T03:19:22;99957.31;;;14.87;100.00
71361;BME280;59166;48.908;1.870;2023-04-28T03:24:25;99956.81;;;14.85;100.00
71361;BME280;59166;48.908;1.870;2023-04-28T03:29:25;99965.47;;;14.87;100.00
71361;BME280;59166;48.908;1.870;2023-04-28T03:34:26;99959.53;;;14.85;100.00
71361;BME280;59166;48.908;1.870;2023-04-28T03:39:29;99950.34;;;14.81;100.00
71361;BME280;59166;48.908;1.870;2023-04-28T03:44:30;99954.38;;;14.83;100.00
71361;BME280;59166;48.908;1.870;2023-04-28T03:49:30;99953.47;;;14.74;100.00
71361;BME280;59166;48.908;1.870;2023-04-28T03:54:33;99946.94;;;14.75;100.00
71361;BME280;59166;48.908;1.870;2023-04-28T03:59:33;99957.00;;;14.75;100.00
71361;BME280;59166;48.908;1.870;2023-04-28T04:04:34;99955.56;;;14.77;100.00
71361;BME280;59166;48.908;1.870;2023-04-28T04:09:37;99970.81;;;14.78;100.00
71361;BME280;59166;48.908;1.870;2023-04-28T04:14:37;99964.84;;;14.76;100.00
71361;BME280;59166;48.908;1.870;2023-04-28T04:19:38;99967.06;;;14.74;100.00
71361;BME280;59166;48.908;1.870;2023-04-28T04:24:40;99961.63;;;14.74;100.00
71361;BME280;59166;48.908;1.870;2023-04-28T04:29:41;99960.53;;;14.75;100.00
71361;BME280;59166;48.908;1.870;2023-04-28T04:34:42;99967.56;;;14.76;100.00
71361;BME280;59166;48.908;1.870;2023-04-28T04:39:44;99977.84;;;14.79;100.00
71361;BME280;59166;48.908;1.870;2023-04-28T04:44:45;99972.22;;;14.76;100.00
71361;BME280;59166;48.908;1.870;2023-04-28T04:49:47;99980.88;;;14.78;100.00
71361;BME280;59166;48.908;1.870;2023-04-28T04:54:49;99975.50;;;14.73;100.00
71361;BME280;59166;48.908;1.870;2023-04-28T04:59:50;99976.25;;;14.78;100.00
71361;BME280;59166;48.908;1.870;2023-04-28T05:04:51;99985.81;;;14.76;100.00
71361;BME280;59166;48.908;1.870;2023-04-28T05:09:53;99981.16;;;14.76;100.00
71361;BME280;59166;48.908;1.870;2023-04-28T05:14:54;99990.06;;;14.82;100.00
71361;BME280;59166;48.908;1.870;2023-04-28T05:19:55;99986.31;;;14.78;100.00
71361;BME280;59166;48.908;1.870;2023-04-28T05:24:57;99987.41;;;14.77;100.00
71361;BME280;59166;48.908;1.870;2023-04-28T05:29:58;99988.44;;;14.81;100.00
71361;BME280;59166;48.908;1.870;2023-04-28T05:34:59;99988.28;;;14.91;100.00
71361;BME280;59166;48.908;1.870;2023-04-28T05:40:01;99989.16;;;14.86;100.00
71361;BME280;59166;48.908;1.870;2023-04-28T05:45:03;100004.97;;;14.84;100.00
71361;BME280;59166;48.908;1.870;2023-04-28T05:50:04;99998.34;;;14.90;100.00
71361;BME280;59166;48.908;1.870;2023-04-28T05:55:08;100002.38;;;14.93;100.00
71361;BME280;59166;48.908;1.870;2023-04-28T06:00:10;100006.38;;;15.01;100.00
71361;BME280;59166;48.908;1.870;2023-04-28T06:05:11;100004.47;;;15.01;100.00
71361;BME280;59166;48.908;1.870;2023-04-28T06:10:13;100009.72;;;15.11;100.00
71361;BME280;59166;48.908;1.870;2023-04-28T06:15:13;100011.94;;;15.09;100.00
71361;BME280;59166;48.908;1.870;2023-04-28T06:20:14;100016.97;;;15.02;100.00
71361;BME280;59166;48.908;1.870;2023-04-28T06:25:17;100022.03;;;15.09;100.00
71361;BME280;59166;48.908;1.870;2023-04-28T06:30:18;100019.53;;;15.12;100.00
71361;BME280;59166;48.908;1.870;2023-04-28T06:35:19;100025.88;;;15.21;100.00
71361;BME280;59166;48.908;1.870;2023-04-28T06:40:21;100030.72;;;15.24;100.00
71361;BME280;59166;48.908;1.870;2023-04-28T06:45:22;100032.84;;;15.27;100.00
71361;BME280;59166;48.908;1.870;2023-04-28T06:50:23;100047.72;;;15.35;100.00
71361;BME280;59166;48.908;1.870;2023-04-28T06:55:25;100043.56;;;15.37;100.00
71361;BME280;59166;48.908;1.870;2023-04-28T07:00:26;100046.91;;;15.34;100.00
71361;BME280;59166;48.908;1.870;2023-04-28T07:05:27;100053.78;;;15.46;100.00
71361;BME280;59166;48.908;1.870;2023-04-28T07:10:29;100055.50;;;15.41;100.00
71361;BME280;59166;48.908;1.870;2023-04-28T07:15:30;100055.84;;;15.54;100.00
71361;BME280;59166;48.908;1.870;2023-04-28T07:20:30;100064.53;;;15.69;100.00
71361;BME280;59166;48.908;1.870;2023-04-28T07:25:33;100052.78;;;15.87;100.00
71361;BME280;59166;48.908;1.870;2023-04-28T07:30:34;100062.34;;;15.85;100.00
71361;BME280;59166;48.908;1.870;2023-04-28T07:35:35;100069.00;;;15.79;100.00
71361;BME280;59166;48.908;1.870;2023-04-28T07:40:38;100072.03;;;15.77;100.00
71361;BME280;59166;48.908;1.870;2023-04-28T07:45:39;100069.09;;;15.74;100.00
71361;BME280;59166;48.908;1.870;2023-04-28T07:50:40;100070.69;;;15.75;100.00
71361;BME280;59166;48.908;1.870;2023-04-28T07:55:42;100075.66;;;15.86;100.00
71361;BME280;59166;48.908;1.870;2023-04-28T08:00:43;100062.84;;;15.87;100.00
71361;BME280;59166;48.908;1.870;2023-04-28T08:05:44;100063.38;;;16.03;100.00
71361;BME280;59166;48.908;1.870;2023-04-28T08:10:46;100069.03;;;16.06;100.00
71361;BME280;59166;48.908;1.870;2023-04-28T08:15:48;100072.03;;;16.05;100.00
71361;BME280;59166;48.908;1.870;2023-04-28T08:20:49;100083.59;;;16.15;100.00
71361;BME280;59166;48.908;1.870;2023-04-28T08:25:51;100086.63;;;16.27;100.00
71361;BME280;59166;48.908;1.870;2023-04-28T08:30:52;100084.59;;;16.33;100.00
71361;BME280;59166;48.908;1.870;2023-04-28T08:35:54;100091.56;;;16.25;100.00
71361;BME280;59166;48.908;1.870;2023-04-28T08:40:56;100089.97;;;16.38;100.00
71361;BME280;59166;48.908;1.870;2023-04-28T08:45:57;100091.47;;;16.44;100.00
71361;BME280;59166;48.908;1.870;2023-04-28T08:50:58;100095.91;;;16.54;100.00
71361;BME280;59166;48.908;1.870;2023-04-28T08:56:04;100102.25;;;16.63;100.00
71361;BME280;59166;48.908;1.870;2023-04-28T09:01:07;100102.22;;;16.76;100.00
71361;BME280;59166;48.908;1.870;2023-04-28T09:06:08;100101.81;;;16.83;100.00
71361;BME280;59166;48.908;1.870;2023-04-28T09:11:10;100104.50;;;16.96;100.00
71361;BME280;59166;48.908;1.870;2023-04-28T09:16:11;100106.56;;;17.13;100.00
71361;BME280;59166;48.908;1.870;2023-04-28T09:21:12;100106.81;;;17.17;100.00
71361;BME280;59166;48.908;1.870;2023-04-28T09:26:14;100106.50;;;17.18;100.00
71361;BME280;59166;48.908;1.870;2023-04-28T09:31:22;100110.44;;;17.26;100.00
71361;BME280;59166;48.908;1.870;2023-04-28T09:36:25;100109.25;;;17.40;100.00
71361;BME280;59166;48.908;1.870;2023-04-28T09:41:38;100115.13;;;17.34;100.00
71361;BME280;59166;48.908;1.870;2023-04-28T09:46:39;100123.13;;;17.30;100.00
71361;BME280;59166;48.908;1.870;2023-04-28T09:51:40;100119.22;;;17.23;100.00
71361;BME280;59166;48.908;1.870;2023-04-28T09:56:43;100122.50;;;17.33;100.00
71361;BME280;59166;48.908;1.870;2023-04-28T10:01:47;100124.66;;;17.59;100.00
71361;BME280;59166;48.908;1.870;2023-04-28T10:06:49;100122.75;;;17.90;100.00
71361;BME280;59166;48.908;1.870;2023-04-28T10:11:51;100123.00;;;18.41;100.00
71361;BME280;59166;48.908;1.870;2023-04-28T10:16:53;100119.34;;;18.55;100.00
71361;BME280;59166;48.908;1.870;2023-04-28T10:27:17;100116.88;;;19.10;96.24
71361;BME280;59166;48.908;1.870;2023-04-28T10:32:20;100127.69;;;19.75;92.48
71361;BME280;59166;48.908;1.870;2023-04-28T10:38:03;100117.00;;;19.99;89.51
71361;BME280;59166;48.908;1.870;2023-04-28T10:43:07;100135.56;;;19.85;88.27
71361;BME280;59166;48.908;1.870;2023-04-28T10:48:08;100121.22;;;20.43;88.19
71361;BME280;59166;48.908;1.870;2023-04-28T10:53:11;100124.91;;;19.92;86.76
71361;BME280;59166;48.908;1.870;2023-04-28T10:58:31;100137.19;;;19.86;90.13
71361;BME280;59166;48.908;1.870;2023-04-28T11:03:48;100132.53;;;20.33;86.67
71361;BME280;59166;48.908;1.870;2023-04-28T11:08:49;100125.13;;;20.63;84.50
71361;BME280;59166;48.908;1.870;2023-04-28T11:13:52;100119.72;;;20.08;82.30
71361;BME280;59166;48.908;1.870;2023-04-28T11:18:55;100121.38;;;19.74;85.87
71361;BME280;59166;48.908;1.870;2023-04-28T11:23:57;100120.47;;;19.44;86.46
71361;BME280;59166;48.908;1.870;2023-04-28T11:28:59;100114.97;;;19.62;84.77
71361;BME280;59166;48.908;1.870;2023-04-28T11:34:03;100113.09;;;20.76;86.14
71361;BME280;59166;48.908;1.870;2023-04-28T11:39:05;100113.22;;;21.50;77.56
71361;BME280;59166;48.908;1.870;2023-04-28T11:44:12;100113.53;;;22.14;75.98
71361;BME280;59166;48.908;1.870;2023-04-28T11:49:13;100116.16;;;21.98;70.49
71361;BME280;59166;48.908;1.870;2023-04-28T11:54:19;100117.13;;;22.39;71.78
71361;BME280;59166;48.908;1.870;2023-04-28T11:59:25;100104.41;;;21.57;71.53
71361;BME280;59166;48.908;1.870;2023-04-28T12:04:27;100109.66;;;21.49;82.32
71361;BME280;59166;48.908;1.870;2023-04-28T12:09:29;100110.38;;;22.36;75.97
71361;BME280;59166;48.908;1.870;2023-04-28T12:14:32;100118.53;;;22.69;67.42
71361;BME280;59166;48.908;1.870;2023-04-28T12:19:52;100126.78;;;22.93;62.01
71361;BME280;59166;48.908;1.870;2023-04-28T12:25:06;100142.50;;;22.93;59.64
71361;BME280;59166;48.908;1.870;2023-04-28T12:30:28;100129.78;;;22.76;64.04
71361;BME280;59166;48.908;1.870;2023-04-28T12:35:29;100134.94;;;22.66;62.36
71361;BME280;59166;48.908;1.870;2023-04-28T12:40:30;100141.31;;;23.06;61.88
71361;BME280;59166;48.908;1.870;2023-04-28T12:45:32;100146.28;;;23.00;56.61
71361;BME280;59166;48.908;1.870;2023-04-28T12:50:33;100134.13;;;22.65;58.29
71361;BME280;59166;48.908;1.870;2023-04-28T12:55:33;100136.94;;;23.05;59.05
71361;BME280;59166;48.908;1.870;2023-04-28T13:00:36;100143.38;;;23.09;62.51
71361;BME280;59166;48.908;1.870;2023-04-28T13:05:36;100161.03;;;23.20;57.20
71361;BME280;59166;48.908;1.870;2023-04-28T13:10:38;100157.94;;;23.34;59.17
71361;BME280;59166;48.908;1.870;2023-04-28T13:15:41;100147.91;;;22.65;57.71
71361;BME280;59166;48.908;1.870;2023-04-28T13:20:41;100144.91;;;22.82;65.46
71361;BME280;59166;48.908;1.870;2023-04-28T13:25:42;100152.03;;;23.47;59.90
71361;BME280;59166;48.908;1.870;2023-04-28T13:30:44;100154.50;;;23.65;54.09
71361;BME280;59166;48.908;1.870;2023-04-28T13:35:45;100155.38;;;23.69;54.03
71361;BME280;59166;48.908;1.870;2023-04-28T13:40:46;100146.38;;;23.84;53.49
71361;BME280;59166;48.908;1.870;2023-04-28T13:45:48;100142.09;;;23.59;51.56
71361;BME280;59166;48.908;1.870;2023-04-28T13:50:49;100146.56;;;23.63;52.48
71361;BME280;59166;48.908;1.870;2023-04-28T13:55:50;100147.41;;;23.79;51.59
71361;BME280;59166;48.908;1.870;2023-04-28T14:00:52;100163.13;;;23.63;53.60
71361;BME280;59166;48.908;1.870;2023-04-28T14:05:55;100156.56;;;23.68;55.37
71361;BME280;59166;48.908;1.870;2023-04-28T14:10:56;100146.06;;;23.45;55.40
71361;BME280;59166;48.908;1.870;2023-04-28T14:15:59;100142.44;;;23.17;52.91
71361;BME280;59166;48.908;1.870;2023-04-28T14:20:59;100136.88;;;22.65;58.56
71361;BME280;59166;48.908;1.870;2023-04-28T14:26:00;100142.72;;;22.64;57.36
71361;BME280;59166;48.908;1.870;2023-04-28T14:31:04;100129.41;;;22.29;55.97
71361;BME280;59166;48.908;1.870;2023-04-28T14:36:05;100130.53;;;22.40;56.87
71361;BME280;59166;48.908;1.870;2023-04-28T14:41:06;100115.19;;;22.64;57.85
71361;BME280;59166;48.908;1.870;2023-04-28T14:46:09;100141.38;;;22.70;57.48
71361;BME280;59166;48.908;1.870;2023-04-28T14:51:10;100128.19;;;22.63;57.41
71361;BME280;59166;48.908;1.870;2023-04-28T14:56:11;100127.94;;;22.68;60.21
71361;BME280;59166;48.908;1.870;2023-04-28T15:01:13;100133.78;;;22.79;56.42
71361;BME280;59166;48.908;1.870;2023-04-28T15:06:14;100137.78;;;22.81;57.03
71361;BME280;59166;48.908;1.870;2023-04-28T15:11:15;100139.50;;;22.86;59.20
71361;BME280;59166;48.908;1.870;2023-04-28T15:16:17;100144.41;;;22.44;58.55
71361;BME280;59166;48.908;1.870;2023-04-28T15:21:18;100133.03;;;22.33;61.08
71361;BME280;59166;48.908;1.870;2023-04-28T15:26:19;100139.69;;;22.20;61.38
71361;BME280;59166;48.908;1.870;2023-04-28T15:31:21;100144.34;;;21.95;60.25
71361;BME280;59166;48.908;1.870;2023-04-28T15:36:22;100146.84;;;21.68;63.12
71361;BME280;59166;48.908;1.870;2023-04-28T15:41:23;100154.56;;;21.54;63.26
71361;BME280;59166;48.908;1.870;2023-04-28T15:46:25;100153.63;;;21.49;63.03
71361;BME280;59166;48.908;1.870;2023-04-28T15:51:26;100150.16;;;21.40;63.59
71361;BME280;59166;48.908;1.870;2023-04-28T15:56:27;100145.34;;;21.37;62.27
71361;BME280;59166;48.908;1.870;2023-04-28T16:01:29;100155.13;;;21.26;64.79
71361;BME280;59166;48.908;1.870;2023-04-28T16:06:30;100143.31;;;21.05;60.16
71361;BME280;59166;48.908;1.870;2023-04-28T16:11:33;100144.38;;;20.92;62.32
71361;BME280;59166;48.908;1.870;2023-04-28T16:16:36;100147.31;;;20.78;59.99
71361;BME280;59166;48.908;1.870;2023-04-28T16:21:36;100160.25;;;20.78;61.06
71361;BME280;59166;48.908;1.870;2023-04-28T16:26:37;100169.63;;;20.77;58.85
71361;BME280;59166;48.908;1.870;2023-04-28T16:31:39;100150.16;;;20.61;62.50
71361;BME280;59166;48.908;1.870;2023-04-28T16:36:40;100152.34;;;20.47;62.62
71361;BME280;59166;48.908;1.870;2023-04-28T16:41:41;100147.06;;;20.33;63.28
71361;BME280;59166;48.908;1.870;2023-04-28T16:46:43;100153.91;;;20.19;63.65
71361;BME280;59166;48.908;1.870;2023-04-28T16:51:54;100145.66;;;20.19;66.33
71361;BME280;59166;48.908;1.870;2023-04-28T16:56:55;100144.91;;;20.10;67.39
71361;BME280;59166;48.908;1.870;2023-04-28T17:01:58;100165.72;;;20.02;67.36
71361;BME280;59166;48.908;1.870;2023-04-28T17:06:59;100155.38;;;19.99;69.81
71361;BME280;59166;48.908;1.870;2023-04-28T17:12:00;100169.59;;;19.92;70.59
71361;BME280;59166;48.908;1.870;2023-04-28T17:17:03;100176.38;;;19.78;70.60
71361;BME280;59166;48.908;1.870;2023-04-28T17:22:04;100184.75;;;19.64;70.63
71361;BME280;59166;48.908;1.870;2023-04-28T17:27:05;100193.78;;;19.47;69.19
71361;BME280;59166;48.908;1.870;2023-04-28T17:32:07;100194.41;;;19.27;70.09
71361;BME280;59166;48.908;1.870;2023-04-28T17:37:09;100200.22;;;19.17;71.04
71361;BME280;59166;48.908;1.870;2023-04-28T17:42:09;100204.63;;;18.96;71.57
71361;BME280;59166;48.908;1.870;2023-04-28T17:47:11;100207.94;;;18.76;71.50
71361;BME280;59166;48.908;1.870;2023-04-28T17:52:12;100211.25;;;18.56;71.44
71361;BME280;59166;48.908;1.870;2023-04-28T17:57:13;100198.28;;;18.30;72.13
71361;BME280;59166;48.908;1.870;2023-04-28T18:02:15;100199.94;;;18.18;74.33
71361;BME280;59166;48.908;1.870;2023-04-28T18:07:16;100205.84;;;18.11;74.10
71361;BME280;59166;48.908;1.870;2023-04-28T18:12:17;100207.22;;;18.00;75.05
71361;BME280;59166;48.908;1.870;2023-04-28T18:17:19;100213.19;;;18.02;76.14
71361;BME280;59166;48.908;1.870;2023-04-28T18:22:20;100215.88;;;17.93;76.73
71361;BME280;59166;48.908;1.870;2023-04-28T18:27:21;100219.97;;;17.82;77.51
71361;BME280;59166;48.908;1.870;2023-04-28T18:32:23;100227.88;;;17.70;79.29
71361;BME280;59166;48.908;1.870;2023-04-28T18:37:24;100240.06;;;17.64;79.23
71361;BME280;59166;48.908;1.870;2023-04-28T18:42:25;100239.91;;;17.47;78.65
71361;BME280;59166;48.908;1.870;2023-04-28T18:47:30;100252.88;;;17.28;80.00
71361;BME280;59166;48.908;1.870;2023-04-28T18:52:31;100263.78;;;17.14;80.30
71361;BME280;59166;48.908;1.870;2023-04-28T18:57:32;100260.16;;;17.05;81.77
71361;BME280;59166;48.908;1.870;2023-04-28T19:02:34;100272.78;;;16.87;82.60
71361;BME280;59166;48.908;1.870;2023-04-28T19:07:35;100262.06;;;16.77;82.56
71361;BME280;59166;48.908;1.870;2023-04-28T19:12:36;100269.44;;;16.63;83.90
71361;BME280;59166;48.908;1.870;2023-04-28T19:17:38;100281.53;;;16.57;84.27
71361;BME280;59166;48.908;1.870;2023-04-28T19:22:39;100301.19;;;16.40;85.30
71361;BME280;59166;48.908;1.870;2023-04-28T19:27:40;100305.19;;;16.29;86.35
71361;BME280;59166;48.908;1.870;2023-04-28T19:32:42;100306.47;;;16.18;87.12
71361;BME280;59166;48.908;1.870;2023-04-28T19:37:43;100315.91;;;16.07;88.57
71361;BME280;59166;48.908;1.870;2023-04-28T19:42:44;100331.00;;;16.00;88.79
71361;BME280;59166;48.908;1.870;2023-04-28T19:47:46;100336.38;;;15.86;88.65
71361;BME280;59166;48.908;1.870;2023-04-28T19:52:50;100341.38;;;15.79;90.30
71361;BME280;59166;48.908;1.870;2023-04-28T19:57:53;100343.13;;;15.70;89.42
71361;BME280;59166;48.908;1.870;2023-04-28T20:14:03;100358.94;;;15.25;90.69
71361;BME280;59166;48.908;1.870;2023-04-28T20:19:04;100370.84;;;15.06;92.62
71361;BME280;59166;48.908;1.870;2023-04-28T20:24:05;100359.81;;;14.92;92.41
71361;BME280;59166;48.908;1.870;2023-04-28T20:29:07;100364.56;;;14.76;94.37
71361;BME280;59166;48.908;1.870;2023-04-28T20:34:08;100368.75;;;14.69;93.92
71361;BME280;59166;48.908;1.870;2023-04-28T20:39:08;100367.78;;;14.55;93.83
71361;BME280;59166;48.908;1.870;2023-04-28T20:44:11;100367.88;;;14.39;93.11
71361;BME280;59166;48.908;1.870;2023-04-28T20:49:11;100375.34;;;14.24;93.31
71361;BME280;59166;48.908;1.870;2023-04-28T20:54:12;100375.41;;;14.14;92.60
71361;BME280;59166;48.908;1.870;2023-04-28T20:59:14;100379.53;;;14.06;92.90
71361;BME280;59166;48.908;1.870;2023-04-28T21:04:15;100378.78;;;13.96;94.17
71361;BME280;59166;48.908;1.870;2023-04-28T21:09:16;100378.53;;;13.92;93.90
71361;BME280;59166;48.908;1.870;2023-04-28T21:14:18;100389.38;;;13.92;93.21
71361;BME280;59166;48.908;1.870;2023-04-28T21:19:19;100391.06;;;13.83;94.31
71361;BME280;59166;48.908;1.870;2023-04-28T21:24:20;100390.56;;;13.81;94.06
71361;BME280;59166;48.908;1.870;2023-04-28T21:29:22;100392.47;;;13.75;94.69
71361;BME280;59166;48.908;1.870;2023-04-28T21:34:23;100378.09;;;13.65;95.49
71361;BME280;59166;48.908;1.870;2023-04-28T21:39:23;100382.50;;;13.51;95.85
71361;BME280;59166;48.908;1.870;2023-04-28T21:44:26;100383.34;;;13.46;96.41
71361;BME280;59166;48.908;1.870;2023-04-28T21:49:26;100383.91;;;13.38;97.02
71361;BME280;59166;48.908;1.870;2023-04-28T21:54:27;100372.53;;;13.36;96.63
71361;BME280;59166;48.908;1.870;2023-04-28T21:59:29;100385.56;;;13.29;97.81
71361;BME280;59166;48.908;1.870;2023-04-28T22:04:30;100391.53;;;13.26;97.42
71361;BME280;59166;48.908;1.870;2023-04-28T22:09:31;100388.03;;;13.20;97.29
71361;BME280;59166;48.908;1.870;2023-04-28T22:14:33;100391.56;;;13.16;98.06
71361;BME280;59166;48.908;1.870;2023-04-28T22:19:34;100402.41;;;13.16;97.22
71361;BME280;59166;48.908;1.870;2023-04-28T22:24:35;100411.13;;;12.98;99.08
71361;BME280;59166;48.908;1.870;2023-04-28T22:29:38;100417.09;;;12.95;99.25
71361;BME280;59166;48.908;1.870;2023-04-28T22:34:39;100420.09;;;12.88;99.46
71361;BME280;59166;48.908;1.870;2023-04-28T22:39:40;100436.38;;;12.83;99.51
71361;BME280;59166;48.908;1.870;2023-04-28T22:44:42;100429.31;;;12.72;99.98
71361;BME280;59166;48.908;1.870;2023-04-28T22:49:43;100442.06;;;12.66;100.00
71361;BME280;59166;48.908;1.870;2023-04-28T22:54:44;100445.56;;;12.62;100.00
71361;BME280;59166;48.908;1.870;2023-04-28T23:05:19;100453.13;;;12.45;100.00
71361;BME280;59166;48.908;1.870;2023-04-28T23:10:20;100455.81;;;12.39;100.00
71361;BME280;59166;48.908;1.870;2023-04-28T23:15:20;100453.66;;;12.31;100.00
71361;BME280;59166;48.908;1.870;2023-04-28T23:20:23;100456.84;;;12.23;100.00
71361;BME280;59166;48.908;1.870;2023-04-28T23:25:23;100441.13;;;12.20;100.00
71361;BME280;59166;48.908;1.870;2023-04-28T23:30:24;100455.22;;;12.17;100.00
71361;BME280;59166;48.908;1.870;2023-04-28T23:35:26;100461.66;;;12.01;100.00
71361;BME280;59166;48.908;1.870;2023-04-28T23:40:27;100458.09;;;11.91;100.00
71361;BME280;59166;48.908;1.870;2023-04-28T23:45:28;100449.94;;;11.80;100.00
71361;BME280;59166;48.908;1.870;2023-04-28T23:50:30;100450.19;;;11.74;100.00
71361;BME280;59166;48.908;1.870;2023-04-28T23:55:31;100447.50;;;11.74;100.00
